createdAt,value
2023-03-26T00:00:08.058Z,73.19
2023-03-26T00:01:08.103Z,73.19
2023-03-26T00:02:08.126Z,73.10
2023-03-26T00:03:08.055Z,73.10
2023-03-26T00:04:08.015Z,73.30
2023-03-26T00:05:08.022Z,73.50
2023-03-26T00:06:08.144Z,73.81
2023-03-26T00:07:07.992Z,73.71
2023-03-26T00:08:07.952Z,73.81
2023-03-26T00:09:07.934Z,73.95
2023-03-26T00:10:07.929Z,73.74
2023-03-26T00:11:07.899Z,74.05
2023-03-26T00:12:07.898Z,73.85
2023-03-26T00:13:07.891Z,74.05
2023-03-26T00:14:07.872Z,74.36
2023-03-26T00:15:07.856Z,74.77
2023-03-26T00:16:07.861Z,74.66
2023-03-26T00:17:07.917Z,74.57
2023-03-26T00:18:15.029Z,74.57
2023-03-26T00:19:07.801Z,74.57
2023-03-26T00:20:07.775Z,74.57
2023-03-26T00:21:07.768Z,74.57
2023-03-26T00:22:07.761Z,74.46
2023-03-26T00:23:07.736Z,74.57
2023-03-26T00:24:07.761Z,74.46
2023-03-26T00:25:07.708Z,74.12
2023-03-26T00:26:07.694Z,74.66
2023-03-26T00:27:07.707Z,74.53
2023-03-26T00:28:07.664Z,74.32
2023-03-26T00:29:07.678Z,74.36
2023-03-26T00:30:07.649Z,74.66
2023-03-26T00:31:07.687Z,74.57
2023-03-26T00:32:07.632Z,74.66
2023-03-26T00:33:07.681Z,74.87
2023-03-26T00:34:07.585Z,74.87
2023-03-26T00:35:07.581Z,74.87
2023-03-26T00:36:07.565Z,74.98
2023-03-26T00:37:07.556Z,75.08
2023-03-26T00:38:07.536Z,75.18
2023-03-26T00:39:07.521Z,75.28
2023-03-26T00:40:07.495Z,75.38
2023-03-26T00:41:07.495Z,75.52
2023-03-26T00:42:07.511Z,75.83
2023-03-26T00:43:07.472Z,75.73
2023-03-26T00:44:07.454Z,75.73
2023-03-26T00:45:07.456Z,76.04
2023-03-26T00:46:07.454Z,76.55
2023-03-26T00:47:07.442Z,76.65
2023-03-26T00:48:07.403Z,76.45
2023-03-26T00:49:07.393Z,76.48
2023-03-26T00:50:07.372Z,76.68
2023-03-26T00:51:07.366Z,76.79
2023-03-26T00:52:07.358Z,76.89
2023-03-26T00:53:07.330Z,77.10
2023-03-26T00:54:07.321Z,77.20
2023-03-26T00:55:07.300Z,77.00
2023-03-26T00:56:07.291Z,77.00
2023-03-26T00:57:07.351Z,77.23
2023-03-26T00:58:07.259Z,77.55
2023-03-26T00:59:07.254Z,77.95
2023-03-26T01:00:07.252Z,78.16
2023-03-26T01:01:07.261Z,78.06
2023-03-26T01:02:07.238Z,77.85
2023-03-26T01:03:07.307Z,77.85
2023-03-26T01:04:08.744Z,78.27
2023-03-26T01:05:07.198Z,78.57
2023-03-26T01:06:07.150Z,78.36
2023-03-26T01:07:07.166Z,78.57
2023-03-26T01:08:07.123Z,78.78
2023-03-26T01:09:07.118Z,78.98
2023-03-26T01:10:07.094Z,79.08
2023-03-26T01:11:07.878Z,79.08
2023-03-26T01:12:07.109Z,78.88
2023-03-26T01:13:07.065Z,78.78
2023-03-26T01:14:07.048Z,78.78
2023-03-26T01:15:07.067Z,78.78
2023-03-26T01:16:07.103Z,78.78
2023-03-26T01:17:07.213Z,78.78
2023-03-26T01:18:07.017Z,78.78
2023-03-26T01:19:06.970Z,78.88
2023-03-26T01:20:06.966Z,78.88
2023-03-26T01:21:06.936Z,78.78
2023-03-26T01:22:06.938Z,78.78
2023-03-26T01:23:06.970Z,78.78
2023-03-26T01:24:06.904Z,78.67
2023-03-26T01:25:06.958Z,78.57
2023-03-26T01:26:06.882Z,78.43
2023-03-26T01:27:06.860Z,78.33
2023-03-26T01:28:06.902Z,78.12
2023-03-26T01:29:06.837Z,78.12
2023-03-26T01:30:06.837Z,78.43
2023-03-26T01:31:07.012Z,78.43
2023-03-26T01:32:06.802Z,78.33
2023-03-26T01:33:06.899Z,78.23
2023-03-26T01:34:06.774Z,78.12
2023-03-26T01:35:06.749Z,77.92
2023-03-26T01:36:06.774Z,77.81
2023-03-26T01:37:06.731Z,77.58
2023-03-26T01:38:06.738Z,77.47
2023-03-26T01:39:06.702Z,77.37
2023-03-26T01:40:06.681Z,77.26
2023-03-26T01:41:06.674Z,77.17
2023-03-26T01:42:06.662Z,77.06
2023-03-26T01:43:06.665Z,76.96
2023-03-26T01:44:06.638Z,76.86
2023-03-26T01:45:06.625Z,76.86
2023-03-26T01:46:06.702Z,76.86
2023-03-26T01:47:06.594Z,76.96
2023-03-26T01:48:06.655Z,77.06
2023-03-26T01:49:06.557Z,77.17
2023-03-26T01:50:06.568Z,77.51
2023-03-26T01:51:06.546Z,77.92
2023-03-26T01:52:06.532Z,78.33
2023-03-26T01:53:06.535Z,78.57
2023-03-26T01:54:06.491Z,78.78
2023-03-26T01:55:06.481Z,78.88
2023-03-26T01:56:06.480Z,78.98
2023-03-26T01:57:06.510Z,79.12
2023-03-26T01:58:06.464Z,79.22
2023-03-26T01:59:06.419Z,79.33
2023-03-26T02:00:06.417Z,79.63
2023-03-26T02:01:06.405Z,79.77
2023-03-26T02:02:06.462Z,79.88
2023-03-26T02:03:06.485Z,80.08
2023-03-26T02:04:06.353Z,80.29
2023-03-26T02:05:06.343Z,80.49
2023-03-26T02:06:06.336Z,80.63
2023-03-26T02:07:06.311Z,80.84
2023-03-26T02:08:06.336Z,81.05
2023-03-26T02:09:06.291Z,81.15
2023-03-26T02:10:06.292Z,81.15
2023-03-26T02:11:06.269Z,81.05
2023-03-26T02:12:06.254Z,80.94
2023-03-26T02:13:06.231Z,80.80
2023-03-26T02:14:06.231Z,80.70
2023-03-26T02:15:06.217Z,80.70
2023-03-26T02:16:06.237Z,80.70
2023-03-26T02:17:06.179Z,80.70
2023-03-26T02:18:06.175Z,80.80
2023-03-26T02:19:06.177Z,80.74
2023-03-26T02:20:06.139Z,80.94
2023-03-26T02:21:06.136Z,81.05
2023-03-26T02:22:06.116Z,81.05
2023-03-26T02:23:06.098Z,80.94
2023-03-26T02:24:06.113Z,81.15
2023-03-26T02:25:06.073Z,81.15
2023-03-26T02:26:06.063Z,81.19
2023-03-26T02:27:06.049Z,81.29
2023-03-26T02:28:06.029Z,81.29
2023-03-26T02:29:06.054Z,81.29
2023-03-26T02:30:06.013Z,81.39
2023-03-26T02:31:05.981Z,81.60
2023-03-26T02:32:05.989Z,81.81
2023-03-26T02:33:06.006Z,81.91
2023-03-26T02:34:05.984Z,82.15
2023-03-26T02:35:05.944Z,82.15
2023-03-26T02:36:05.982Z,82.15
2023-03-26T02:37:05.910Z,82.15
2023-03-26T02:38:05.890Z,82.25
2023-03-26T02:39:05.914Z,82.46
2023-03-26T02:40:05.871Z,82.56
2023-03-26T02:41:05.870Z,82.77
2023-03-26T02:42:05.848Z,82.67
2023-03-26T02:43:05.821Z,82.56
2023-03-26T02:44:05.834Z,82.67
2023-03-26T02:45:05.819Z,82.56
2023-03-26T02:46:05.959Z,82.50
2023-03-26T02:47:05.791Z,82.50
2023-03-26T02:48:05.799Z,82.60
2023-03-26T02:49:05.771Z,82.70
2023-03-26T02:50:05.736Z,82.91
2023-03-26T02:51:05.724Z,82.91
2023-03-26T02:52:05.709Z,83.01
2023-03-26T02:53:05.676Z,83.05
2023-03-26T02:54:05.700Z,83.05
2023-03-26T02:55:05.690Z,83.15
2023-03-26T02:56:05.650Z,83.36
2023-03-26T02:57:05.673Z,83.47
2023-03-26T02:58:05.627Z,83.47
2023-03-26T02:59:05.641Z,83.56
2023-03-26T03:00:05.599Z,83.67
2023-03-26T03:01:05.629Z,83.67
2023-03-26T03:02:05.624Z,83.94
2023-03-26T03:03:05.614Z,84.14
2023-03-26T03:04:05.573Z,84.14
2023-03-26T03:05:05.565Z,83.94
2023-03-26T03:06:05.523Z,84.14
2023-03-26T03:07:05.501Z,84.14
2023-03-26T03:08:05.479Z,84.05
2023-03-26T03:09:05.479Z,84.05
2023-03-26T03:10:05.477Z,84.11
2023-03-26T03:11:05.487Z,83.90
2023-03-26T03:12:05.440Z,83.80
2023-03-26T03:13:05.429Z,83.90
2023-03-26T03:14:05.407Z,84.00
2023-03-26T03:15:05.423Z,84.11
2023-03-26T03:16:05.391Z,84.21
2023-03-26T03:17:05.401Z,84.21
2023-03-26T03:18:05.393Z,84.21
2023-03-26T03:19:05.352Z,84.11
2023-03-26T03:20:05.365Z,83.80
2023-03-26T03:21:05.326Z,83.59
2023-03-26T03:22:05.301Z,83.59
2023-03-26T03:23:05.299Z,83.70
2023-03-26T03:24:05.281Z,83.70
2023-03-26T03:25:05.278Z,83.70
2023-03-26T03:26:05.253Z,83.80
2023-03-26T03:27:05.244Z,84.00
2023-03-26T03:28:05.235Z,84.00
2023-03-26T03:29:05.219Z,84.11
2023-03-26T03:30:05.213Z,84.11
2023-03-26T03:31:05.241Z,84.00
2023-03-26T03:32:05.184Z,84.00
2023-03-26T03:33:05.277Z,84.21
2023-03-26T03:34:05.153Z,84.31
2023-03-26T03:35:05.160Z,84.42
2023-03-26T03:36:05.166Z,84.52
2023-03-26T03:37:05.159Z,84.72
2023-03-26T03:38:05.104Z,84.83
2023-03-26T03:39:05.082Z,85.03
2023-03-26T03:40:05.080Z,85.03
2023-03-26T03:41:05.051Z,84.93
2023-03-26T03:42:05.069Z,85.14
2023-03-26T03:43:05.106Z,85.34
2023-03-26T03:44:05.013Z,85.55
2023-03-26T03:45:05.044Z,85.65
2023-03-26T03:46:04.991Z,85.65
2023-03-26T03:47:04.978Z,85.24
2023-03-26T03:48:05.071Z,85.03
2023-03-26T03:49:04.975Z,85.14
2023-03-26T03:50:04.944Z,85.14
2023-03-26T03:51:04.926Z,85.24
2023-03-26T03:52:04.910Z,85.24
2023-03-26T03:53:04.885Z,85.14
2023-03-26T03:54:04.880Z,85.24
2023-03-26T03:55:04.908Z,85.44
2023-03-26T03:56:04.895Z,85.61
2023-03-26T03:57:04.853Z,85.61
2023-03-26T03:58:04.818Z,85.41
2023-03-26T03:59:04.804Z,85.41
2023-03-26T04:00:06.888Z,85.61
2023-03-26T04:01:04.809Z,85.82
2023-03-26T04:02:04.768Z,86.02
2023-03-26T04:03:04.875Z,86.74
2023-03-26T04:04:04.807Z,87.15
2023-03-26T04:05:04.735Z,86.85
2023-03-26T04:06:04.710Z,86.85
2023-03-26T04:07:04.712Z,87.05
2023-03-26T04:08:04.683Z,87.46
2023-03-26T04:09:04.676Z,87.46
2023-03-26T04:10:04.671Z,87.57
2023-03-26T04:11:04.641Z,87.67
2023-03-26T04:12:04.621Z,87.67
2023-03-26T04:13:04.623Z,87.98
2023-03-26T04:14:04.590Z,88.49
2023-03-26T04:15:04.606Z,88.59
2023-03-26T04:16:04.609Z,88.39
2023-03-26T04:17:04.565Z,88.39
2023-03-26T04:18:04.616Z,88.49
2023-03-26T04:19:04.633Z,88.49
2023-03-26T04:20:04.554Z,88.49
2023-03-26T04:21:04.589Z,88.59
2023-03-26T04:22:04.587Z,88.59
2023-03-26T04:23:04.488Z,88.80
2023-03-26T04:24:04.460Z,89.11
2023-03-26T04:25:04.472Z,89.01
2023-03-26T04:26:04.429Z,88.95
2023-03-26T04:27:04.426Z,88.95
2023-03-26T04:28:04.413Z,89.15
2023-03-26T04:29:04.411Z,89.36
2023-03-26T04:30:04.390Z,89.46
2023-03-26T04:31:04.394Z,89.56
2023-03-26T04:32:04.354Z,89.87
2023-03-26T04:33:04.378Z,90.03
2023-03-26T04:34:04.325Z,90.03
2023-03-26T04:35:04.395Z,90.08
2023-03-26T04:36:04.337Z,90.08
2023-03-26T04:37:04.304Z,90.28
2023-03-26T04:38:04.272Z,90.49
2023-03-26T04:39:04.266Z,90.59
2023-03-26T04:40:04.247Z,90.69
2023-03-26T04:41:04.697Z,90.69
2023-03-26T04:42:04.216Z,90.90
2023-03-26T04:43:04.209Z,91.00
2023-03-26T04:44:04.196Z,90.90
2023-03-26T04:45:04.181Z,90.90
2023-03-26T04:46:04.177Z,90.90
2023-03-26T04:47:04.152Z,91.00
2023-03-26T04:48:04.208Z,91.11
2023-03-26T04:49:04.146Z,91.21
2023-03-26T04:50:04.133Z,91.42
2023-03-26T04:51:04.117Z,91.52
2023-03-26T04:52:04.056Z,91.62
2023-03-26T04:53:04.083Z,91.62
2023-03-26T04:54:04.048Z,91.72
2023-03-26T04:55:04.059Z,91.72
2023-03-26T04:56:04.051Z,91.72
2023-03-26T04:57:04.065Z,91.62
2023-03-26T04:58:04.043Z,91.52
2023-03-26T04:59:03.996Z,91.52
2023-03-26T05:00:03.972Z,91.42
2023-03-26T05:01:10.229Z,91.31
2023-03-26T05:02:05.007Z,91.31
2023-03-26T05:03:04.026Z,91.31
2023-03-26T05:04:03.998Z,91.21
2023-03-26T05:05:03.947Z,91.11
2023-03-26T05:06:03.913Z,90.90
2023-03-26T05:07:03.901Z,91.00
2023-03-26T05:08:03.862Z,91.11
2023-03-26T05:09:03.851Z,91.00
2023-03-26T05:10:03.885Z,90.90
2023-03-26T05:11:03.845Z,90.94
2023-03-26T05:12:03.808Z,90.94
2023-03-26T05:13:03.806Z,90.94
2023-03-26T05:14:03.836Z,90.94
2023-03-26T05:15:03.807Z,91.25
2023-03-26T05:16:03.849Z,91.36
2023-03-26T05:17:03.789Z,91.36
2023-03-26T05:18:03.827Z,91.36
2023-03-26T05:19:03.754Z,91.36
2023-03-26T05:20:03.712Z,91.56
2023-03-26T05:21:03.709Z,91.66
2023-03-26T05:22:03.683Z,91.97
2023-03-26T05:23:03.656Z,92.29
2023-03-26T05:24:03.659Z,92.38
2023-03-26T05:25:03.691Z,92.49
2023-03-26T05:26:03.640Z,92.49
2023-03-26T05:27:03.629Z,92.29
2023-03-26T05:28:03.585Z,92.18
2023-03-26T05:29:03.587Z,92.08
2023-03-26T05:30:03.570Z,91.87
2023-03-26T05:31:03.598Z,91.87
2023-03-26T05:32:03.535Z,91.97
2023-03-26T05:33:03.611Z,91.77
2023-03-26T05:34:03.514Z,91.77
2023-03-26T05:35:03.512Z,91.87
2023-03-26T05:36:03.515Z,91.97
2023-03-26T05:37:03.483Z,92.08
2023-03-26T05:38:03.458Z,92.18
2023-03-26T05:39:03.447Z,92.29
2023-03-26T05:40:03.439Z,92.38
2023-03-26T05:41:03.452Z,92.38
2023-03-26T05:42:03.417Z,92.38
2023-03-26T05:43:03.405Z,92.49
2023-03-26T05:44:03.381Z,92.55
2023-03-26T05:45:03.363Z,92.44
2023-03-26T05:46:03.413Z,92.34
2023-03-26T05:47:03.353Z,92.24
2023-03-26T05:48:03.367Z,92.03
2023-03-26T05:49:03.318Z,91.83
2023-03-26T05:50:03.303Z,91.72
2023-03-26T05:51:03.325Z,91.72
2023-03-26T05:52:03.279Z,91.62
2023-03-26T05:53:03.270Z,91.66
2023-03-26T05:54:03.265Z,91.66
2023-03-26T05:55:03.237Z,91.77
2023-03-26T05:56:03.229Z,91.97
2023-03-26T05:57:03.275Z,92.18
2023-03-26T05:58:03.199Z,92.29
2023-03-26T05:59:03.182Z,92.55
2023-03-26T06:00:03.163Z,92.96
2023-03-26T06:01:03.185Z,92.96
2023-03-26T06:02:03.151Z,92.96
2023-03-26T06:03:03.312Z,92.86
2023-03-26T06:04:03.167Z,92.86
2023-03-26T06:05:03.109Z,92.96
2023-03-26T06:06:03.080Z,93.16
2023-03-26T06:07:03.094Z,93.27
2023-03-26T06:08:03.067Z,93.37
2023-03-26T06:09:03.110Z,93.27
2023-03-26T06:10:03.042Z,93.06
2023-03-26T06:11:03.024Z,93.06
2023-03-26T06:12:03.024Z,93.06
2023-03-26T06:13:03.003Z,93.16
2023-03-26T06:14:02.993Z,93.27
2023-03-26T06:15:02.972Z,93.37
2023-03-26T06:16:03.007Z,93.27
2023-03-26T06:17:02.982Z,92.96
2023-03-26T06:18:02.967Z,92.86
2023-03-26T06:19:02.954Z,92.86
2023-03-26T06:20:02.902Z,92.92
2023-03-26T06:21:02.896Z,93.12
2023-03-26T06:22:02.888Z,93.33
2023-03-26T06:23:02.867Z,93.23
2023-03-26T06:24:02.836Z,93.02
2023-03-26T06:25:02.834Z,92.92
2023-03-26T06:26:02.834Z,93.02
2023-03-26T06:27:02.833Z,92.92
2023-03-26T06:28:02.799Z,92.82
2023-03-26T06:29:02.781Z,92.61
2023-03-26T06:30:02.763Z,92.50
2023-03-26T06:31:02.780Z,92.40
2023-03-26T06:32:12.697Z,92.30
2023-03-26T06:33:03.725Z,92.50
2023-03-26T06:34:02.690Z,92.57
2023-03-26T06:35:02.689Z,92.57
2023-03-26T06:36:02.700Z,92.46
2023-03-26T06:37:02.686Z,92.57
2023-03-26T06:38:02.655Z,92.77
2023-03-26T06:39:07.837Z,92.77
2023-03-26T06:40:03.620Z,92.87
2023-03-26T06:41:02.623Z,92.97
2023-03-26T06:42:02.635Z,93.08
2023-03-26T06:43:08.719Z,93.08
2023-03-26T06:44:03.575Z,93.18
2023-03-26T06:45:02.555Z,93.29
2023-03-26T06:46:02.544Z,93.08
2023-03-26T06:47:02.540Z,92.87
2023-03-26T06:48:02.569Z,92.87
2023-03-26T06:49:02.498Z,92.87
2023-03-26T06:50:02.502Z,92.87
2023-03-26T06:51:02.480Z,92.97
2023-03-26T06:52:02.466Z,93.18
2023-03-26T06:53:02.450Z,93.29
2023-03-26T06:54:02.435Z,93.08
2023-03-26T06:55:02.417Z,92.36
2023-03-26T06:56:02.412Z,92.25
2023-03-26T06:57:02.454Z,92.46
2023-03-26T06:58:02.385Z,92.67
2023-03-26T06:59:02.357Z,92.67
2023-03-26T07:00:02.366Z,92.46
2023-03-26T07:01:02.384Z,92.36
2023-03-26T07:02:02.362Z,92.36
2023-03-26T07:03:02.349Z,92.46
2023-03-26T07:04:02.325Z,92.67
2023-03-26T07:05:02.283Z,92.87
2023-03-26T07:06:02.311Z,92.97
2023-03-26T07:07:02.266Z,92.87
2023-03-26T07:08:02.273Z,92.73
2023-03-26T07:09:02.232Z,92.52
2023-03-26T07:10:02.231Z,92.42
2023-03-26T07:11:02.233Z,92.42
2023-03-26T07:12:02.207Z,92.42
2023-03-26T07:13:02.225Z,92.32
2023-03-26T07:14:02.176Z,92.21
2023-03-26T07:15:02.171Z,92.21
2023-03-26T07:16:02.153Z,92.11
2023-03-26T07:17:02.153Z,92.01
2023-03-26T07:18:02.157Z,91.91
2023-03-26T07:19:02.104Z,91.91
2023-03-26T07:20:02.178Z,91.80
2023-03-26T07:21:02.059Z,91.80
2023-03-26T07:22:02.065Z,91.70
2023-03-26T07:23:02.051Z,91.55
2023-03-26T07:24:02.036Z,91.25
2023-03-26T07:25:02.022Z,91.04
2023-03-26T07:26:02.009Z,91.04
2023-03-26T07:27:01.983Z,90.94
2023-03-26T07:28:02.003Z,90.73
2023-03-26T07:29:04.701Z,90.63
2023-03-26T07:30:01.949Z,90.53
2023-03-26T07:31:01.939Z,90.53
2023-03-26T07:32:02.004Z,90.53
2023-03-26T07:33:01.936Z,90.53
2023-03-26T07:34:01.893Z,90.32
2023-03-26T07:35:02.133Z,90.32
2023-03-26T07:36:01.880Z,90.32
2023-03-26T07:37:01.842Z,90.53
2023-03-26T07:38:01.877Z,90.53
2023-03-26T07:39:01.818Z,90.42
2023-03-26T07:40:01.808Z,90.32
2023-03-26T07:41:01.821Z,90.22
2023-03-26T07:42:01.804Z,90.01
2023-03-26T07:43:01.808Z,90.01
2023-03-26T07:44:01.756Z,90.12
2023-03-26T07:45:01.745Z,90.12
2023-03-26T07:46:01.744Z,90.32
2023-03-26T07:47:01.711Z,90.32
2023-03-26T07:48:01.741Z,90.32
2023-03-26T07:49:01.715Z,90.22
2023-03-26T07:50:01.688Z,90.01
2023-03-26T07:51:01.672Z,89.91
2023-03-26T07:52:01.654Z,90.01
2023-03-26T07:53:01.642Z,89.91
2023-03-26T07:54:01.617Z,89.91
2023-03-26T07:55:01.620Z,90.01
2023-03-26T07:56:01.664Z,90.01
2023-03-26T07:57:02.191Z,89.91
2023-03-26T07:58:01.569Z,89.81
2023-03-26T07:59:01.537Z,89.70
2023-03-26T08:00:01.534Z,89.70
2023-03-26T08:01:01.521Z,89.81
2023-03-26T08:02:01.515Z,89.91
2023-03-26T08:03:01.676Z,90.12
2023-03-26T08:04:23.747Z,90.22
2023-03-26T08:05:02.610Z,90.22
2023-03-26T08:06:01.463Z,90.32
2023-03-26T08:07:01.436Z,90.42
2023-03-26T08:08:01.421Z,90.63
2023-03-26T08:09:01.418Z,90.73
2023-03-26T08:10:01.395Z,90.94
2023-03-26T08:11:01.387Z,91.25
2023-03-26T08:12:01.386Z,91.45
2023-03-26T08:13:01.352Z,91.55
2023-03-26T08:14:01.375Z,91.76
2023-03-26T08:15:01.325Z,91.97
2023-03-26T08:16:01.388Z,92.17
2023-03-26T08:17:01.304Z,92.38
2023-03-26T08:18:01.321Z,92.32
2023-03-26T08:19:01.288Z,92.52
2023-03-26T08:20:01.266Z,92.63
2023-03-26T08:21:01.258Z,92.63
2023-03-26T08:22:01.239Z,92.83
2023-03-26T08:23:01.205Z,92.83
2023-03-26T08:24:01.220Z,92.83
2023-03-26T08:25:01.252Z,92.83
2023-03-26T08:26:01.189Z,92.63
2023-03-26T08:27:01.163Z,92.52
2023-03-26T08:28:01.154Z,92.42
2023-03-26T08:29:01.162Z,92.52
2023-03-26T08:30:01.117Z,92.63
2023-03-26T08:31:01.148Z,92.73
2023-03-26T08:32:01.103Z,92.73
2023-03-26T08:33:01.096Z,92.73
2023-03-26T08:34:01.082Z,92.73
2023-03-26T08:35:01.043Z,92.73
2023-03-26T08:36:01.073Z,92.73
2023-03-26T08:37:01.012Z,92.63
2023-03-26T08:38:01.022Z,92.52
2023-03-26T08:39:01.086Z,92.42
2023-03-26T08:40:00.985Z,92.52
2023-03-26T08:41:00.973Z,92.48
2023-03-26T08:42:00.953Z,92.58
2023-03-26T08:43:00.934Z,92.58
2023-03-26T08:44:00.939Z,92.58
2023-03-26T08:45:00.919Z,92.48
2023-03-26T08:46:00.901Z,92.27
2023-03-26T08:47:00.874Z,92.27
2023-03-26T08:48:00.891Z,92.27
2023-03-26T08:49:00.845Z,92.17
2023-03-26T08:50:00.834Z,92.07
2023-03-26T08:51:00.857Z,92.17
2023-03-26T08:52:00.825Z,92.17
2023-03-26T08:53:00.795Z,92.07
2023-03-26T08:54:00.820Z,92.07
2023-03-26T08:55:00.769Z,92.17
2023-03-26T08:56:00.755Z,92.27
2023-03-26T08:57:00.816Z,92.48
2023-03-26T08:58:00.747Z,92.58
2023-03-26T08:59:00.727Z,92.73
2023-03-26T09:00:02.479Z,92.89
2023-03-26T09:01:00.691Z,92.99
2023-03-26T09:02:00.757Z,93.10
2023-03-26T09:03:00.726Z,93.20
2023-03-26T09:04:00.685Z,93.20
2023-03-26T09:05:00.634Z,93.20
2023-03-26T09:06:00.640Z,93.10
2023-03-26T09:07:00.621Z,93.30
2023-03-26T09:08:00.601Z,95.10
2023-03-26T09:09:00.607Z,96.40
2023-03-26T09:10:00.567Z,95.68
2023-03-26T09:11:00.555Z,94.76
2023-03-26T09:12:00.553Z,93.01
2023-03-26T09:13:00.514Z,91.99
2023-03-26T09:14:00.533Z,91.47
2023-03-26T09:15:00.499Z,91.27
2023-03-26T09:16:00.522Z,91.31
2023-03-26T09:17:00.468Z,91.51
2023-03-26T09:18:00.519Z,91.93
2023-03-26T09:19:00.445Z,92.03
2023-03-26T09:20:00.459Z,92.23
2023-03-26T09:21:00.422Z,92.33
2023-03-26T09:22:00.417Z,92.44
2023-03-26T09:23:00.394Z,92.58
2023-03-26T09:24:00.377Z,92.69
2023-03-26T09:25:00.385Z,92.69
2023-03-26T09:26:00.359Z,92.79
2023-03-26T09:27:00.342Z,92.79
2023-03-26T09:28:00.318Z,92.89
2023-03-26T09:29:00.315Z,92.99
2023-03-26T09:30:00.326Z,93.20
2023-03-26T09:31:00.296Z,93.30
2023-03-26T09:32:00.275Z,93.40
2023-03-26T09:33:00.286Z,93.51
2023-03-26T09:34:00.451Z,93.61
2023-03-26T09:35:00.265Z,93.71
2023-03-26T09:36:00.254Z,93.82
2023-03-26T09:37:00.210Z,93.40
2023-03-26T09:38:00.197Z,93.10
2023-03-26T09:39:00.188Z,92.95
2023-03-26T09:40:00.187Z,92.74
2023-03-26T09:41:00.209Z,92.64
2023-03-26T09:42:00.137Z,92.54
2023-03-26T09:43:00.124Z,92.54
2023-03-26T09:44:00.110Z,92.54
2023-03-26T09:45:00.135Z,92.64
2023-03-26T09:46:00.148Z,92.60
2023-03-26T09:47:00.107Z,92.50
2023-03-26T09:48:00.170Z,92.50
2023-03-26T09:49:00.054Z,92.50
2023-03-26T09:50:00.048Z,92.29
2023-03-26T09:51:00.047Z,92.19
2023-03-26T09:51:59.997Z,92.29
2023-03-26T09:52:59.981Z,92.46
2023-03-26T09:53:59.973Z,92.55
2023-03-26T09:54:59.969Z,92.55
2023-03-26T09:55:59.937Z,92.55
2023-03-26T09:56:59.965Z,92.66
2023-03-26T09:57:59.965Z,92.66
2023-03-26T09:58:59.899Z,92.55
2023-03-26T09:59:59.899Z,92.25
2023-03-26T10:00:59.914Z,91.74
2023-03-26T10:01:59.854Z,91.42
2023-03-26T10:02:59.856Z,90.81
2023-03-26T10:03:59.824Z,90.20
2023-03-26T10:04:59.910Z,89.78
2023-03-26T10:05:59.815Z,89.27
2023-03-26T10:06:59.779Z,88.86
2023-03-26T10:07:59.777Z,88.24
2023-03-26T10:08:59.764Z,87.73
2023-03-26T10:09:59.739Z,86.85
2023-03-26T10:10:59.752Z,86.33
2023-03-26T10:11:59.719Z,86.24
2023-03-26T10:13:08.347Z,86.13
2023-03-26T10:14:00.693Z,89.07
2023-03-26T10:14:59.678Z,87.73
2023-03-26T10:15:59.690Z,86.81
2023-03-26T10:16:59.694Z,86.81
2023-03-26T10:17:59.672Z,86.30
2023-03-26T10:18:59.620Z,86.19
2023-03-26T10:19:59.621Z,85.64
2023-03-26T10:20:59.608Z,84.55
2023-03-26T10:21:59.588Z,84.92
2023-03-26T10:22:59.561Z,84.66
2023-03-26T10:23:59.568Z,84.66
2023-03-26T10:24:59.557Z,85.06
2023-03-26T10:25:59.556Z,85.64
2023-03-26T10:27:09.285Z,85.68
2023-03-26T10:28:00.490Z,85.89
2023-03-26T10:28:59.498Z,85.78
2023-03-26T10:29:59.469Z,85.27
2023-03-26T10:30:59.669Z,85.27
2023-03-26T10:31:59.455Z,85.38
2023-03-26T10:32:59.457Z,85.58
2023-03-26T10:33:59.454Z,85.99
2023-03-26T10:34:59.399Z,86.09
2023-03-26T10:35:59.442Z,86.19
2023-03-26T10:36:59.369Z,86.71
2023-03-26T10:37:59.464Z,87.02
2023-03-26T10:38:59.337Z,87.22
2023-03-26T10:39:59.331Z,87.53
2023-03-26T10:40:59.322Z,87.32
2023-03-26T10:41:59.328Z,87.12
2023-03-26T10:42:59.297Z,87.26
2023-03-26T10:44:07.879Z,87.37
2023-03-26T10:45:00.254Z,87.57
2023-03-26T10:45:59.313Z,87.98
2023-03-26T10:46:59.248Z,87.37
2023-03-26T10:47:59.246Z,87.16
2023-03-26T10:48:59.191Z,86.54
2023-03-26T10:49:59.183Z,86.95
2023-03-26T10:50:59.175Z,87.16
2023-03-26T10:51:59.181Z,87.37
2023-03-26T10:52:59.156Z,87.63
2023-03-26T10:53:59.165Z,87.84
2023-03-26T10:54:59.120Z,87.73
2023-03-26T10:55:59.117Z,87.84
2023-03-26T10:56:59.130Z,88.24
2023-03-26T10:57:59.075Z,88.35
2023-03-26T10:58:59.075Z,88.35
2023-03-26T10:59:59.046Z,88.14
2023-03-26T11:00:59.050Z,87.70
2023-03-26T11:01:59.052Z,87.49
2023-03-26T11:02:59.060Z,87.38
2023-03-26T11:03:58.988Z,86.87
2023-03-26T11:04:58.990Z,86.57
2023-03-26T11:05:59.003Z,86.46
2023-03-26T11:06:58.996Z,86.77
2023-03-26T11:07:58.940Z,87.49
2023-03-26T11:08:58.918Z,87.70
2023-03-26T11:09:58.911Z,86.98
2023-03-26T11:10:58.901Z,86.57
2023-03-26T11:11:58.903Z,86.05
2023-03-26T11:12:58.909Z,85.85
2023-03-26T11:13:58.862Z,85.74
2023-03-26T11:14:58.866Z,86.15
2023-03-26T11:15:58.851Z,86.15
2023-03-26T11:16:58.842Z,85.95
2023-03-26T11:17:58.874Z,85.85
2023-03-26T11:18:58.826Z,85.85
2023-03-26T11:19:58.778Z,86.36
2023-03-26T11:21:18.653Z,87.38
2023-03-26T11:21:59.772Z,87.90
2023-03-26T11:22:58.737Z,88.31
2023-03-26T11:24:04.756Z,88.72
2023-03-26T11:24:59.770Z,89.17
2023-03-26T11:25:58.699Z,89.48
2023-03-26T11:27:15.657Z,89.48
2023-03-26T11:27:59.654Z,89.69
2023-03-26T11:29:03.768Z,89.89
2023-03-26T11:29:59.644Z,89.99
2023-03-26T11:30:59.031Z,90.16
2023-03-26T11:31:58.646Z,90.36
2023-03-26T11:32:58.661Z,90.67
2023-03-26T11:33:58.593Z,90.56
2023-03-26T11:34:58.590Z,90.67
2023-03-26T11:35:58.567Z,90.87
2023-03-26T11:36:58.592Z,91.08
2023-03-26T11:37:58.552Z,91.18
2023-03-26T11:38:58.528Z,90.36
2023-03-26T11:39:58.506Z,89.95
2023-03-26T11:40:58.801Z,90.05
2023-03-26T11:41:58.481Z,90.36
2023-03-26T11:42:58.492Z,90.56
2023-03-26T11:43:58.447Z,90.56
2023-03-26T11:44:58.457Z,90.67
2023-03-26T11:45:58.441Z,90.46
2023-03-26T11:46:58.460Z,90.05
2023-03-26T11:47:58.468Z,90.05
2023-03-26T11:48:58.390Z,90.36
2023-03-26T11:49:58.358Z,90.36
2023-03-26T11:50:58.363Z,90.36
2023-03-26T11:51:58.356Z,90.26
2023-03-26T11:52:58.353Z,90.56
2023-03-26T11:53:58.315Z,90.77
2023-03-26T11:54:58.314Z,90.97
2023-03-26T11:55:58.279Z,91.18
2023-03-26T11:57:05.710Z,91.18
2023-03-26T11:57:59.261Z,91.18
2023-03-26T11:58:58.257Z,91.18
2023-03-26T11:59:58.328Z,90.87
2023-03-26T12:00:58.220Z,90.56
2023-03-26T12:01:58.282Z,90.56
2023-03-26T12:02:58.233Z,90.77
2023-03-26T12:03:58.254Z,90.87
2023-03-26T12:04:58.192Z,91.18
2023-03-26T12:05:58.136Z,91.28
2023-03-26T12:06:58.136Z,91.38
2023-03-26T12:07:58.175Z,91.49
2023-03-26T12:08:58.180Z,91.08
2023-03-26T12:09:58.106Z,90.93
2023-03-26T12:10:59.072Z,91.14
2023-03-26T12:11:58.132Z,91.14
2023-03-26T12:12:58.065Z,91.24
2023-03-26T12:13:58.041Z,91.14
2023-03-26T12:14:58.036Z,90.99
2023-03-26T12:15:58.070Z,91.20
2023-03-26T12:16:58.004Z,91.20
2023-03-26T12:17:58.051Z,91.30
2023-03-26T12:18:57.958Z,91.40
2023-03-26T12:19:57.955Z,91.46
2023-03-26T12:20:58.034Z,91.46
2023-03-26T12:21:57.923Z,90.84
2023-03-26T12:22:57.939Z,90.54
2023-03-26T12:23:57.883Z,90.44
2023-03-26T12:24:57.900Z,90.34
2023-03-26T12:25:57.951Z,88.90
2023-03-26T12:26:57.861Z,88.59
2023-03-26T12:27:57.874Z,88.29
2023-03-26T12:28:57.830Z,88.86
2023-03-26T12:29:57.816Z,89.89
2023-03-26T12:30:57.951Z,90.30
2023-03-26T12:31:58.360Z,90.60
2023-03-26T12:32:57.799Z,90.39
2023-03-26T12:33:59.024Z,90.36
2023-03-26T12:34:57.746Z,89.94
2023-03-26T12:35:57.774Z,89.94
2023-03-26T12:36:57.738Z,89.74
2023-03-26T12:37:57.690Z,89.74
2023-03-26T12:40:06.235Z,89.80
2023-03-26T12:40:09.973Z,89.59
2023-03-26T12:40:58.676Z,88.47
2023-03-26T12:44:42.694Z,87.65
2023-03-26T12:44:53.521Z,87.55
2023-03-26T12:44:53.964Z,87.35
2023-03-26T12:45:00.125Z,87.14
2023-03-26T12:47:54.832Z,87.35
2023-03-26T12:47:57.670Z,87.24
2023-03-26T12:48:03.765Z,87.24
2023-03-26T12:48:58.690Z,87.55
2023-03-26T12:49:57.578Z,87.85
2023-03-26T12:50:57.866Z,87.65
2023-03-26T12:51:57.562Z,87.10